sensor_id;sensor_type;location;lat;lon;timestamp;temperature;humidity
26599;DHT22;14240;51.064;16.612;2023-05-16T00:01:31;11.70;99.90
26599;DHT22;14240;51.064;16.612;2023-05-16T00:03:58;11.70;99.90
26599;DHT22;14240;51.064;16.612;2023-05-16T00:06:24;11.70;99.90
26599;DHT22;14240;51.064;16.612;2023-05-16T00:08:49;11.70;99.90
26599;DHT22;14240;51.064;16.612;2023-05-16T00:11:16;11.80;99.90
26599;DHT22;14240;51.064;16.612;2023-05-16T00:13:41;11.80;99.90
26599;DHT22;14240;51.064;16.612;2023-05-16T00:16:08;11.80;99.90
26599;DHT22;14240;51.064;16.612;2023-05-16T00:18:34;11.80;99.90
26599;DHT22;14240;51.064;16.612;2023-05-16T00:21:02;11.80;99.90
26599;DHT22;14240;51.064;16.612;2023-05-16T00:23:29;11.80;99.90
26599;DHT22;14240;51.064;16.612;2023-05-16T00:25:55;11.80;99.90
26599;DHT22;14240;51.064;16.612;2023-05-16T00:28:21;11.80;99.90
26599;DHT22;14240;51.064;16.612;2023-05-16T00:30:47;11.80;99.90
26599;DHT22;14240;51.064;16.612;2023-05-16T00:33:13;11.80;99.90
26599;DHT22;14240;51.064;16.612;2023-05-16T00:35:39;11.80;99.90
26599;DHT22;14240;51.064;16.612;2023-05-16T00:38:05;11.80;99.90
26599;DHT22;14240;51.064;16.612;2023-05-16T00:40:31;11.70;99.90
26599;DHT22;14240;51.064;16.612;2023-05-16T00:42:57;11.80;99.90
26599;DHT22;14240;51.064;16.612;2023-05-16T00:45:23;11.70;99.90
26599;DHT22;14240;51.064;16.612;2023-05-16T00:47:52;11.70;99.90
26599;DHT22;14240;51.064;16.612;2023-05-16T00:50:18;11.70;99.90
26599;DHT22;14240;51.064;16.612;2023-05-16T00:52:44;11.70;99.90
26599;DHT22;14240;51.064;16.612;2023-05-16T00:55:10;11.70;99.90
26599;DHT22;14240;51.064;16.612;2023-05-16T00:57:39;11.60;99.90
26599;DHT22;14240;51.064;16.612;2023-05-16T01:00:06;11.60;99.90
26599;DHT22;14240;51.064;16.612;2023-05-16T01:02:35;11.60;99.90
26599;DHT22;14240;51.064;16.612;2023-05-16T01:05:02;11.60;99.90
26599;DHT22;14240;51.064;16.612;2023-05-16T01:07:30;11.50;99.90
26599;DHT22;14240;51.064;16.612;2023-05-16T01:09:55;11.50;99.90
26599;DHT22;14240;51.064;16.612;2023-05-16T01:15:31;11.50;99.90
26599;DHT22;14240;51.064;16.612;2023-05-16T01:18:07;11.50;99.90
26599;DHT22;14240;51.064;16.612;2023-05-16T01:20:53;11.50;99.90
26599;DHT22;14240;51.064;16.612;2023-05-16T01:28:50;11.40;99.90
26599;DHT22;14240;51.064;16.612;2023-05-16T01:31:16;11.30;99.90
26599;DHT22;14240;51.064;16.612;2023-05-16T01:33:42;11.40;99.90
26599;DHT22;14240;51.064;16.612;2023-05-16T01:36:18;11.30;99.90
26599;DHT22;14240;51.064;16.612;2023-05-16T01:41:24;11.30;99.90
26599;DHT22;14240;51.064;16.612;2023-05-16T01:44:01;11.30;99.90
26599;DHT22;14240;51.064;16.612;2023-05-16T01:46:30;11.30;99.90
26599;DHT22;14240;51.064;16.612;2023-05-16T01:51:48;11.20;99.90
26599;DHT22;14240;51.064;16.612;2023-05-16T01:54:17;11.20;99.90
26599;DHT22;14240;51.064;16.612;2023-05-16T01:56:50;11.20;99.90
26599;DHT22;14240;51.064;16.612;2023-05-16T01:59:17;11.10;99.90
26599;DHT22;14240;51.064;16.612;2023-05-16T02:01:43;11.10;99.90
26599;DHT22;14240;51.064;16.612;2023-05-16T02:04:09;11.10;99.90
26599;DHT22;14240;51.064;16.612;2023-05-16T02:06:34;11.10;99.90
26599;DHT22;14240;51.064;16.612;2023-05-16T02:09:00;11.10;99.90
26599;DHT22;14240;51.064;16.612;2023-05-16T02:11:26;11.00;99.90
26599;DHT22;14240;51.064;16.612;2023-05-16T02:13:52;11.00;99.90
26599;DHT22;14240;51.064;16.612;2023-05-16T02:16:17;11.00;99.90
26599;DHT22;14240;51.064;16.612;2023-05-16T02:18:43;11.00;99.90
26599;DHT22;14240;51.064;16.612;2023-05-16T02:21:10;11.00;99.90
26599;DHT22;14240;51.064;16.612;2023-05-16T02:23:35;11.00;99.90
26599;DHT22;14240;51.064;16.612;2023-05-16T02:26:01;11.10;99.90
26599;DHT22;14240;51.064;16.612;2023-05-16T02:28:27;11.00;99.90
26599;DHT22;14240;51.064;16.612;2023-05-16T02:30:59;11.00;99.90
26599;DHT22;14240;51.064;16.612;2023-05-16T02:33:26;11.00;99.90
26599;DHT22;14240;51.064;16.612;2023-05-16T02:35:53;11.00;99.90
26599;DHT22;14240;51.064;16.612;2023-05-16T02:38:19;11.00;99.90
26599;DHT22;14240;51.064;16.612;2023-05-16T02:40:46;10.90;99.90
26599;DHT22;14240;51.064;16.612;2023-05-16T02:43:12;10.90;99.90
26599;DHT22;14240;51.064;16.612;2023-05-16T02:45:38;10.80;99.90
26599;DHT22;14240;51.064;16.612;2023-05-16T02:48:03;10.80;99.90
26599;DHT22;14240;51.064;16.612;2023-05-16T02:50:29;10.70;99.90
26599;DHT22;14240;51.064;16.612;2023-05-16T02:52:55;10.70;99.90
26599;DHT22;14240;51.064;16.612;2023-05-16T02:55:24;10.70;99.90
26599;DHT22;14240;51.064;16.612;2023-05-16T02:57:50;10.70;99.90
26599;DHT22;14240;51.064;16.612;2023-05-16T03:00:16;10.70;99.90
26599;DHT22;14240;51.064;16.612;2023-05-16T03:02:43;10.70;99.90
26599;DHT22;14240;51.064;16.612;2023-05-16T03:05:09;10.70;99.90
26599;DHT22;14240;51.064;16.612;2023-05-16T03:07:36;10.60;99.90
26599;DHT22;14240;51.064;16.612;2023-05-16T03:10:02;10.60;99.90
26599;DHT22;14240;51.064;16.612;2023-05-16T03:12:28;10.60;99.90
26599;DHT22;14240;51.064;16.612;2023-05-16T03:14:53;10.60;99.90
26599;DHT22;14240;51.064;16.612;2023-05-16T03:17:19;10.60;99.90
26599;DHT22;14240;51.064;16.612;2023-05-16T03:19:45;10.60;99.90
26599;DHT22;14240;51.064;16.612;2023-05-16T03:22:10;10.60;99.90
26599;DHT22;14240;51.064;16.612;2023-05-16T03:24:36;10.60;99.90
26599;DHT22;14240;51.064;16.612;2023-05-16T03:27:02;10.60;99.90
26599;DHT22;14240;51.064;16.612;2023-05-16T03:29:29;10.60;99.90
26599;DHT22;14240;51.064;16.612;2023-05-16T03:31:55;10.60;99.90
26599;DHT22;14240;51.064;16.612;2023-05-16T03:34:21;10.60;99.90
26599;DHT22;14240;51.064;16.612;2023-05-16T03:36:48;10.70;99.90
26599;DHT22;14240;51.064;16.612;2023-05-16T03:39:14;10.70;99.90
26599;DHT22;14240;51.064;16.612;2023-05-16T03:41:40;10.70;99.90
26599;DHT22;14240;51.064;16.612;2023-05-16T03:44:06;10.70;99.90
26599;DHT22;14240;51.064;16.612;2023-05-16T03:46:31;10.80;99.90
26599;DHT22;14240;51.064;16.612;2023-05-16T03:48:57;10.80;99.90
26599;DHT22;14240;51.064;16.612;2023-05-16T03:51:23;10.80;99.90
26599;DHT22;14240;51.064;16.612;2023-05-16T03:53:49;10.80;99.90
26599;DHT22;14240;51.064;16.612;2023-05-16T03:56:15;10.90;99.90
26599;DHT22;14240;51.064;16.612;2023-05-16T03:58:40;10.90;99.90
26599;DHT22;14240;51.064;16.612;2023-05-16T04:01:06;10.90;99.90
26599;DHT22;14240;51.064;16.612;2023-05-16T04:03:35;11.00;99.90
26599;DHT22;14240;51.064;16.612;2023-05-16T04:06:06;11.00;99.90
26599;DHT22;14240;51.064;16.612;2023-05-16T04:08:32;11.00;99.90
26599;DHT22;14240;51.064;16.612;2023-05-16T04:10:58;11.10;99.90
26599;DHT22;14240;51.064;16.612;2023-05-16T04:13:24;11.90;99.90
26599;DHT22;14240;51.064;16.612;2023-05-16T04:15:49;11.20;99.90
26599;DHT22;14240;51.064;16.612;2023-05-16T04:18:15;11.20;99.90
26599;DHT22;14240;51.064;16.612;2023-05-16T04:20:42;11.30;99.90
26599;DHT22;14240;51.064;16.612;2023-05-16T04:23:08;11.30;99.90
26599;DHT22;14240;51.064;16.612;2023-05-16T04:25:36;11.40;99.90
26599;DHT22;14240;51.064;16.612;2023-05-16T04:28:02;11.50;99.90
26599;DHT22;14240;51.064;16.612;2023-05-16T04:30:28;11.60;99.90
26599;DHT22;14240;51.064;16.612;2023-05-16T04:32:53;11.60;99.90
26599;DHT22;14240;51.064;16.612;2023-05-16T04:35:19;11.80;99.90
26599;DHT22;14240;51.064;16.612;2023-05-16T04:37:46;11.90;99.90
26599;DHT22;14240;51.064;16.612;2023-05-16T04:40:12;12.10;99.90
26599;DHT22;14240;51.064;16.612;2023-05-16T04:42:38;12.30;99.90
26599;DHT22;14240;51.064;16.612;2023-05-16T04:45:04;12.40;99.90
26599;DHT22;14240;51.064;16.612;2023-05-16T04:47:31;12.60;99.90
26599;DHT22;14240;51.064;16.612;2023-05-16T04:49:57;12.90;99.90
26599;DHT22;14240;51.064;16.612;2023-05-16T04:52:22;13.00;99.90
26599;DHT22;14240;51.064;16.612;2023-05-16T04:54:51;13.20;99.90
26599;DHT22;14240;51.064;16.612;2023-05-16T04:57:17;13.40;99.90
26599;DHT22;14240;51.064;16.612;2023-05-16T04:59:42;13.60;99.90
26599;DHT22;14240;51.064;16.612;2023-05-16T05:02:08;13.80;99.90
26599;DHT22;14240;51.064;16.612;2023-05-16T05:04:34;13.90;99.90
26599;DHT22;14240;51.064;16.612;2023-05-16T05:07:00;14.20;99.90
26599;DHT22;14240;51.064;16.612;2023-05-16T05:09:26;14.40;99.90
26599;DHT22;14240;51.064;16.612;2023-05-16T05:11:51;14.60;99.90
26599;DHT22;14240;51.064;16.612;2023-05-16T05:14:17;14.90;99.90
26599;DHT22;14240;51.064;16.612;2023-05-16T05:16:43;15.30;99.90
26599;DHT22;14240;51.064;16.612;2023-05-16T05:19:08;15.80;99.90
26599;DHT22;14240;51.064;16.612;2023-05-16T05:21:34;16.10;99.90
26599;DHT22;14240;51.064;16.612;2023-05-16T05:24:00;16.50;99.90
26599;DHT22;14240;51.064;16.612;2023-05-16T05:26:26;16.80;99.90
26599;DHT22;14240;51.064;16.612;2023-05-16T05:28:53;17.00;99.90
26599;DHT22;14240;51.064;16.612;2023-05-16T05:31:18;17.20;99.90
26599;DHT22;14240;51.064;16.612;2023-05-16T05:33:44;17.40;99.90
26599;DHT22;14240;51.064;16.612;2023-05-16T05:36:10;17.60;99.90
26599;DHT22;14240;51.064;16.612;2023-05-16T05:38:36;17.80;99.90
26599;DHT22;14240;51.064;16.612;2023-05-16T05:41:03;18.10;99.90
26599;DHT22;14240;51.064;16.612;2023-05-16T05:43:29;18.30;99.90
26599;DHT22;14240;51.064;16.612;2023-05-16T05:45:55;19.00;99.90
26599;DHT22;14240;51.064;16.612;2023-05-16T05:48:21;18.80;99.90
26599;DHT22;14240;51.064;16.612;2023-05-16T05:50:46;19.00;99.90
26599;DHT22;14240;51.064;16.612;2023-05-16T05:53:12;19.30;99.90
26599;DHT22;14240;51.064;16.612;2023-05-16T05:55:38;19.50;99.90
26599;DHT22;14240;51.064;16.612;2023-05-16T05:58:06;19.70;99.90
26599;DHT22;14240;51.064;16.612;2023-05-16T06:00:31;19.70;99.90
26599;DHT22;14240;51.064;16.612;2023-05-16T06:02:57;19.80;99.90
26599;DHT22;14240;51.064;16.612;2023-05-16T06:05:23;19.70;99.90
26599;DHT22;14240;51.064;16.612;2023-05-16T06:07:48;19.70;99.90
26599;DHT22;14240;51.064;16.612;2023-05-16T06:10:14;19.70;99.90
26599;DHT22;14240;51.064;16.612;2023-05-16T06:12:40;19.70;99.90
26599;DHT22;14240;51.064;16.612;2023-05-16T06:15:06;19.80;99.90
26599;DHT22;14240;51.064;16.612;2023-05-16T06:17:32;20.00;99.90
26599;DHT22;14240;51.064;16.612;2023-05-16T06:19:58;20.00;99.90
26599;DHT22;14240;51.064;16.612;2023-05-16T06:22:23;20.10;99.90
26599;DHT22;14240;51.064;16.612;2023-05-16T06:24:49;20.00;99.90
26599;DHT22;14240;51.064;16.612;2023-05-16T06:27:15;19.80;99.90
26599;DHT22;14240;51.064;16.612;2023-05-16T06:29:40;19.80;99.90
26599;DHT22;14240;51.064;16.612;2023-05-16T06:32:06;19.70;99.90
26599;DHT22;14240;51.064;16.612;2023-05-16T06:34:32;19.70;99.90
26599;DHT22;14240;51.064;16.612;2023-05-16T06:36:58;19.70;99.90
26599;DHT22;14240;51.064;16.612;2023-05-16T06:39:24;19.80;99.90
26599;DHT22;14240;51.064;16.612;2023-05-16T06:41:50;19.80;99.90
26599;DHT22;14240;51.064;16.612;2023-05-16T06:44:16;19.80;99.90
26599;DHT22;14240;51.064;16.612;2023-05-16T06:46:41;19.70;99.90
26599;DHT22;14240;51.064;16.612;2023-05-16T06:49:07;19.50;99.90
26599;DHT22;14240;51.064;16.612;2023-05-16T06:51:33;19.40;99.90
26599;DHT22;14240;51.064;16.612;2023-05-16T06:53:59;19.40;99.90
26599;DHT22;14240;51.064;16.612;2023-05-16T06:56:24;19.40;99.90
26599;DHT22;14240;51.064;16.612;2023-05-16T06:58:50;19.40;99.90
26599;DHT22;14240;51.064;16.612;2023-05-16T07:01:16;19.40;99.90
26599;DHT22;14240;51.064;16.612;2023-05-16T07:03:41;19.60;99.90
26599;DHT22;14240;51.064;16.612;2023-05-16T07:06:07;19.70;99.90
26599;DHT22;14240;51.064;16.612;2023-05-16T07:08:33;19.80;99.90
26599;DHT22;14240;51.064;16.612;2023-05-16T07:11:01;19.90;99.90
26599;DHT22;14240;51.064;16.612;2023-05-16T07:13:26;19.90;99.90
26599;DHT22;14240;51.064;16.612;2023-05-16T07:15:52;19.70;99.90
26599;DHT22;14240;51.064;16.612;2023-05-16T07:18:18;19.70;99.90
26599;DHT22;14240;51.064;16.612;2023-05-16T07:20:44;19.50;99.90
26599;DHT22;14240;51.064;16.612;2023-05-16T07:23:10;19.40;99.90
26599;DHT22;14240;51.064;16.612;2023-05-16T07:25:36;19.30;99.90
26599;DHT22;14240;51.064;16.612;2023-05-16T07:28:02;19.20;99.90
26599;DHT22;14240;51.064;16.612;2023-05-16T07:30:28;19.10;99.90
26599;DHT22;14240;51.064;16.612;2023-05-16T07:32:54;19.00;99.90
26599;DHT22;14240;51.064;16.612;2023-05-16T07:35:19;18.80;99.90
26599;DHT22;14240;51.064;16.612;2023-05-16T07:37:45;18.60;99.90
26599;DHT22;14240;51.064;16.612;2023-05-16T07:40:11;18.50;99.90
26599;DHT22;14240;51.064;16.612;2023-05-16T07:42:37;18.40;99.90
26599;DHT22;14240;51.064;16.612;2023-05-16T07:45:04;18.20;99.90
26599;DHT22;14240;51.064;16.612;2023-05-16T07:47:31;18.00;99.90
26599;DHT22;14240;51.064;16.612;2023-05-16T07:49:57;17.90;99.90
26599;DHT22;14240;51.064;16.612;2023-05-16T07:52:22;17.80;99.90
26599;DHT22;14240;51.064;16.612;2023-05-16T07:54:48;17.80;99.90
26599;DHT22;14240;51.064;16.612;2023-05-16T07:57:14;17.70;99.90
26599;DHT22;14240;51.064;16.612;2023-05-16T07:59:40;17.50;99.90
26599;DHT22;14240;51.064;16.612;2023-05-16T08:02:06;17.40;99.90
26599;DHT22;14240;51.064;16.612;2023-05-16T08:04:32;17.40;99.90
26599;DHT22;14240;51.064;16.612;2023-05-16T08:06:58;17.30;99.90
26599;DHT22;14240;51.064;16.612;2023-05-16T08:09:23;17.20;99.90
26599;DHT22;14240;51.064;16.612;2023-05-16T08:11:49;17.10;99.90
26599;DHT22;14240;51.064;16.612;2023-05-16T08:14:15;17.10;99.90
26599;DHT22;14240;51.064;16.612;2023-05-16T08:16:40;17.20;99.90
26599;DHT22;14240;51.064;16.612;2023-05-16T08:19:06;17.20;99.90
26599;DHT22;14240;51.064;16.612;2023-05-16T08:21:32;17.30;99.90
26599;DHT22;14240;51.064;16.612;2023-05-16T08:23:57;17.30;99.90
26599;DHT22;14240;51.064;16.612;2023-05-16T08:26:23;17.30;99.90
26599;DHT22;14240;51.064;16.612;2023-05-16T08:28:49;17.20;99.90
26599;DHT22;14240;51.064;16.612;2023-05-16T08:31:15;17.20;99.90
26599;DHT22;14240;51.064;16.612;2023-05-16T08:33:41;17.20;99.90
26599;DHT22;14240;51.064;16.612;2023-05-16T08:36:08;17.20;99.90
26599;DHT22;14240;51.064;16.612;2023-05-16T08:38:34;17.20;99.90
26599;DHT22;14240;51.064;16.612;2023-05-16T08:41:00;17.20;99.90
26599;DHT22;14240;51.064;16.612;2023-05-16T08:43:26;17.30;99.90
26599;DHT22;14240;51.064;16.612;2023-05-16T08:45:52;17.40;99.90
26599;DHT22;14240;51.064;16.612;2023-05-16T08:48:21;17.50;99.90
26599;DHT22;14240;51.064;16.612;2023-05-16T08:50:47;17.60;99.90
26599;DHT22;14240;51.064;16.612;2023-05-16T08:53:14;17.60;99.90
26599;DHT22;14240;51.064;16.612;2023-05-16T08:55:43;17.60;99.90
26599;DHT22;14240;51.064;16.612;2023-05-16T08:58:11;17.60;99.90
26599;DHT22;14240;51.064;16.612;2023-05-16T09:00:37;17.50;99.90
26599;DHT22;14240;51.064;16.612;2023-05-16T09:03:04;17.50;99.90
26599;DHT22;14240;51.064;16.612;2023-05-16T09:05:30;17.40;99.90
26599;DHT22;14240;51.064;16.612;2023-05-16T09:07:56;17.40;99.90
26599;DHT22;14240;51.064;16.612;2023-05-16T09:10:22;17.40;99.90
26599;DHT22;14240;51.064;16.612;2023-05-16T09:12:47;17.40;99.90
26599;DHT22;14240;51.064;16.612;2023-05-16T09:15:13;17.40;99.90
26599;DHT22;14240;51.064;16.612;2023-05-16T09:17:44;17.30;99.90
26599;DHT22;14240;51.064;16.612;2023-05-16T09:22:48;17.20;99.90
26599;DHT22;14240;51.064;16.612;2023-05-16T09:25:19;17.20;99.90
26599;DHT22;14240;51.064;16.612;2023-05-16T09:27:52;17.20;99.90
26599;DHT22;14240;51.064;16.612;2023-05-16T09:30:21;17.10;99.90
26599;DHT22;14240;51.064;16.612;2023-05-16T09:32:51;17.00;99.90
26599;DHT22;14240;51.064;16.612;2023-05-16T09:35:18;17.00;99.90
26599;DHT22;14240;51.064;16.612;2023-05-16T09:37:45;16.90;99.90
26599;DHT22;14240;51.064;16.612;2023-05-16T09:40:12;16.80;99.90
26599;DHT22;14240;51.064;16.612;2023-05-16T09:42:38;16.80;99.90
26599;DHT22;14240;51.064;16.612;2023-05-16T09:45:04;16.80;99.90
26599;DHT22;14240;51.064;16.612;2023-05-16T09:47:29;16.80;99.90
26599;DHT22;14240;51.064;16.612;2023-05-16T09:49:56;16.80;99.90
26599;DHT22;14240;51.064;16.612;2023-05-16T09:52:21;16.80;99.90
26599;DHT22;14240;51.064;16.612;2023-05-16T09:54:51;16.80;99.90
26599;DHT22;14240;51.064;16.612;2023-05-16T09:57:17;16.80;99.90
26599;DHT22;14240;51.064;16.612;2023-05-16T09:59:44;16.70;99.90
26599;DHT22;14240;51.064;16.612;2023-05-16T10:02:12;16.70;99.90
26599;DHT22;14240;51.064;16.612;2023-05-16T10:04:38;16.70;99.90
26599;DHT22;14240;51.064;16.612;2023-05-16T10:07:05;16.70;99.90
26599;DHT22;14240;51.064;16.612;2023-05-16T10:09:34;16.70;99.90
26599;DHT22;14240;51.064;16.612;2023-05-16T10:12:07;16.70;99.90
26599;DHT22;14240;51.064;16.612;2023-05-16T10:14:36;16.70;99.90
26599;DHT22;14240;51.064;16.612;2023-05-16T10:17:06;16.70;99.90
26599;DHT22;14240;51.064;16.612;2023-05-16T10:19:36;16.70;99.90
26599;DHT22;14240;51.064;16.612;2023-05-16T10:22:04;16.70;99.90
26599;DHT22;14240;51.064;16.612;2023-05-16T10:24:43;16.60;99.90
26599;DHT22;14240;51.064;16.612;2023-05-16T10:27:09;16.50;99.90
26599;DHT22;14240;51.064;16.612;2023-05-16T10:29:37;16.50;99.90
26599;DHT22;14240;51.064;16.612;2023-05-16T10:32:05;16.40;99.90
26599;DHT22;14240;51.064;16.612;2023-05-16T10:34:31;16.50;99.90
26599;DHT22;14240;51.064;16.612;2023-05-16T10:36:58;16.50;99.90
26599;DHT22;14240;51.064;16.612;2023-05-16T10:39:24;16.40;99.90
26599;DHT22;14240;51.064;16.612;2023-05-16T10:41:50;16.50;99.90
26599;DHT22;14240;51.064;16.612;2023-05-16T10:44:16;16.50;99.90
26599;DHT22;14240;51.064;16.612;2023-05-16T10:46:42;16.50;99.90
26599;DHT22;14240;51.064;16.612;2023-05-16T10:49:25;16.60;99.90
26599;DHT22;14240;51.064;16.612;2023-05-16T10:52:08;16.60;99.90
26599;DHT22;14240;51.064;16.612;2023-05-16T10:54:42;16.70;99.90
26599;DHT22;14240;51.064;16.612;2023-05-16T10:57:10;16.40;99.90
26599;DHT22;14240;51.064;16.612;2023-05-16T10:59:40;16.70;99.90
26599;DHT22;14240;51.064;16.612;2023-05-16T11:04:53;16.80;99.90
26599;DHT22;14240;51.064;16.612;2023-05-16T11:07:20;16.80;99.90
26599;DHT22;14240;51.064;16.612;2023-05-16T11:10:05;16.90;99.90
26599;DHT22;14240;51.064;16.612;2023-05-16T11:12:41;16.90;99.90
26599;DHT22;14240;51.064;16.612;2023-05-16T11:15:23;17.00;99.90
26599;DHT22;14240;51.064;16.612;2023-05-16T11:17:49;17.00;99.90
26599;DHT22;14240;51.064;16.612;2023-05-16T11:20:32;17.00;99.90
26599;DHT22;14240;51.064;16.612;2023-05-16T11:23:21;17.00;99.90
26599;DHT22;14240;51.064;16.612;2023-05-16T11:25:52;16.90;99.90
26599;DHT22;14240;51.064;16.612;2023-05-16T11:28:19;16.90;99.90
26599;DHT22;14240;51.064;16.612;2023-05-16T11:30:47;16.90;99.90
26599;DHT22;14240;51.064;16.612;2023-05-16T11:33:14;16.80;99.90
26599;DHT22;14240;51.064;16.612;2023-05-16T11:35:41;16.80;99.90
26599;DHT22;14240;51.064;16.612;2023-05-16T11:38:16;16.80;99.90
26599;DHT22;14240;51.064;16.612;2023-05-16T11:40:43;16.70;99.90
26599;DHT22;14240;51.064;16.612;2023-05-16T11:43:09;16.70;99.90
26599;DHT22;14240;51.064;16.612;2023-05-16T11:45:36;16.60;99.90
26599;DHT22;14240;51.064;16.612;2023-05-16T11:48:02;16.60;99.90
26599;DHT22;14240;51.064;16.612;2023-05-16T11:50:33;16.60;99.90
26599;DHT22;14240;51.064;16.612;2023-05-16T11:52:59;16.60;99.90
26599;DHT22;14240;51.064;16.612;2023-05-16T11:55:27;16.50;99.90
26599;DHT22;14240;51.064;16.612;2023-05-16T11:57:55;16.50;99.90
26599;DHT22;14240;51.064;16.612;2023-05-16T12:00:23;16.40;99.90
26599;DHT22;14240;51.064;16.612;2023-05-16T12:02:51;16.40;99.90
26599;DHT22;14240;51.064;16.612;2023-05-16T12:05:18;16.30;99.90
26599;DHT22;14240;51.064;16.612;2023-05-16T12:07:52;16.30;99.90
26599;DHT22;14240;51.064;16.612;2023-05-16T12:10:19;16.10;99.90
26599;DHT22;14240;51.064;16.612;2023-05-16T12:12:47;16.10;99.90
26599;DHT22;14240;51.064;16.612;2023-05-16T12:15:13;16.10;99.90
26599;DHT22;14240;51.064;16.612;2023-05-16T12:17:40;16.10;99.90
26599;DHT22;14240;51.064;16.612;2023-05-16T12:20:08;16.10;99.90
26599;DHT22;14240;51.064;16.612;2023-05-16T12:22:41;16.10;99.90
26599;DHT22;14240;51.064;16.612;2023-05-16T12:25:30;16.00;99.90
26599;DHT22;14240;51.064;16.612;2023-05-16T12:28:02;16.00;99.90
26599;DHT22;14240;51.064;16.612;2023-05-16T12:30:29;16.00;99.90
26599;DHT22;14240;51.064;16.612;2023-05-16T12:33:02;15.90;99.90
26599;DHT22;14240;51.064;16.612;2023-05-16T12:35:32;15.90;99.90
26599;DHT22;14240;51.064;16.612;2023-05-16T12:37:59;15.90;99.90
26599;DHT22;14240;51.064;16.612;2023-05-16T12:40:29;15.90;99.90
26599;DHT22;14240;51.064;16.612;2023-05-16T12:42:54;15.90;99.90
26599;DHT22;14240;51.064;16.612;2023-05-16T12:45:25;15.90;99.90
26599;DHT22;14240;51.064;16.612;2023-05-16T12:47:52;15.80;99.90
26599;DHT22;14240;51.064;16.612;2023-05-16T12:50:18;15.80;99.90
26599;DHT22;14240;51.064;16.612;2023-05-16T12:52:50;15.80;99.90
26599;DHT22;14240;51.064;16.612;2023-05-16T12:55:21;15.70;99.90
26599;DHT22;14240;51.064;16.612;2023-05-16T12:57:48;15.70;99.90
26599;DHT22;14240;51.064;16.612;2023-05-16T13:00:18;15.70;99.90
26599;DHT22;14240;51.064;16.612;2023-05-16T13:02:45;15.70;99.90
26599;DHT22;14240;51.064;16.612;2023-05-16T13:05:12;15.50;99.90
26599;DHT22;14240;51.064;16.612;2023-05-16T13:07:38;15.50;99.90
26599;DHT22;14240;51.064;16.612;2023-05-16T13:10:07;15.50;99.90
26599;DHT22;14240;51.064;16.612;2023-05-16T13:12:35;15.40;99.90
26599;DHT22;14240;51.064;16.612;2023-05-16T13:15:01;15.40;99.90
26599;DHT22;14240;51.064;16.612;2023-05-16T13:17:27;15.30;99.90
26599;DHT22;14240;51.064;16.612;2023-05-16T13:19:55;15.30;99.90
26599;DHT22;14240;51.064;16.612;2023-05-16T13:22:20;15.20;99.90
26599;DHT22;14240;51.064;16.612;2023-05-16T13:24:46;15.10;99.90
26599;DHT22;14240;51.064;16.612;2023-05-16T13:27:15;15.10;99.90
26599;DHT22;14240;51.064;16.612;2023-05-16T13:29:41;15.00;99.90
26599;DHT22;14240;51.064;16.612;2023-05-16T13:32:07;15.00;99.90
26599;DHT22;14240;51.064;16.612;2023-05-16T13:34:33;15.00;99.90
26599;DHT22;14240;51.064;16.612;2023-05-16T13:36:59;14.90;99.90
26599;DHT22;14240;51.064;16.612;2023-05-16T13:39:25;14.90;99.90
26599;DHT22;14240;51.064;16.612;2023-05-16T13:41:51;14.90;99.90
26599;DHT22;14240;51.064;16.612;2023-05-16T13:44:17;14.80;99.90
26599;DHT22;14240;51.064;16.612;2023-05-16T13:46:43;14.80;99.90
26599;DHT22;14240;51.064;16.612;2023-05-16T13:49:09;14.90;99.90
26599;DHT22;14240;51.064;16.612;2023-05-16T13:51:35;14.80;99.90
26599;DHT22;14240;51.064;16.612;2023-05-16T13:54:01;14.80;99.90
26599;DHT22;14240;51.064;16.612;2023-05-16T13:56:26;14.80;99.90
26599;DHT22;14240;51.064;16.612;2023-05-16T13:58:52;14.80;99.90
26599;DHT22;14240;51.064;16.612;2023-05-16T14:01:18;14.80;99.90
26599;DHT22;14240;51.064;16.612;2023-05-16T14:03:43;14.70;99.90
26599;DHT22;14240;51.064;16.612;2023-05-16T14:06:09;14.70;99.90
26599;DHT22;14240;51.064;16.612;2023-05-16T14:08:35;14.60;99.90
26599;DHT22;14240;51.064;16.612;2023-05-16T14:11:01;14.60;99.90
26599;DHT22;14240;51.064;16.612;2023-05-16T14:13:26;14.60;99.90
26599;DHT22;14240;51.064;16.612;2023-05-16T14:15:52;14.60;99.90
26599;DHT22;14240;51.064;16.612;2023-05-16T14:18:18;14.50;99.90
26599;DHT22;14240;51.064;16.612;2023-05-16T14:20:44;14.40;99.90
26599;DHT22;14240;51.064;16.612;2023-05-16T14:23:09;14.40;99.90
26599;DHT22;14240;51.064;16.612;2023-05-16T14:25:35;14.30;99.90
26599;DHT22;14240;51.064;16.612;2023-05-16T14:28:01;14.20;99.90
26599;DHT22;14240;51.064;16.612;2023-05-16T14:30:26;14.10;99.90
26599;DHT22;14240;51.064;16.612;2023-05-16T14:32:52;14.10;99.90
26599;DHT22;14240;51.064;16.612;2023-05-16T14:35:18;14.00;99.90
26599;DHT22;14240;51.064;16.612;2023-05-16T14:37:44;13.90;99.90
26599;DHT22;14240;51.064;16.612;2023-05-16T14:40:10;13.80;99.90
26599;DHT22;14240;51.064;16.612;2023-05-16T14:42:35;13.80;99.90
26599;DHT22;14240;51.064;16.612;2023-05-16T14:45:01;13.80;99.90
26599;DHT22;14240;51.064;16.612;2023-05-16T14:47:27;13.90;99.90
26599;DHT22;14240;51.064;16.612;2023-05-16T14:49:55;13.80;99.90
26599;DHT22;14240;51.064;16.612;2023-05-16T14:52:21;13.80;99.90
26599;DHT22;14240;51.064;16.612;2023-05-16T14:54:47;13.80;99.90
26599;DHT22;14240;51.064;16.612;2023-05-16T14:57:12;13.70;99.90
26599;DHT22;14240;51.064;16.612;2023-05-16T14:59:38;13.70;99.90
26599;DHT22;14240;51.064;16.612;2023-05-16T15:02:04;13.60;99.90
26599;DHT22;14240;51.064;16.612;2023-05-16T15:04:31;13.60;99.90
26599;DHT22;14240;51.064;16.612;2023-05-16T15:06:57;13.60;99.90
26599;DHT22;14240;51.064;16.612;2023-05-16T15:09:23;13.60;99.90
26599;DHT22;14240;51.064;16.612;2023-05-16T15:11:48;13.60;99.90
26599;DHT22;14240;51.064;16.612;2023-05-16T15:14:14;13.60;99.90
26599;DHT22;14240;51.064;16.612;2023-05-16T15:16:41;13.60;99.90
26599;DHT22;14240;51.064;16.612;2023-05-16T15:19:06;13.50;99.90
26599;DHT22;14240;51.064;16.612;2023-05-16T15:21:33;13.60;99.90
26599;DHT22;14240;51.064;16.612;2023-05-16T15:23:58;13.50;99.90
26599;DHT22;14240;51.064;16.612;2023-05-16T15:26:25;13.50;99.90
26599;DHT22;14240;51.064;16.612;2023-05-16T15:28:50;13.50;99.90
26599;DHT22;14240;51.064;16.612;2023-05-16T15:31:16;13.50;99.90
26599;DHT22;14240;51.064;16.612;2023-05-16T15:33:42;13.50;99.90